Main page
METAR-TAF:

METAR-TAF

Airports :

Brno–Tuřany Airport

Brno, Czech Republic

latitude: 49-09N, longitude: 016-42E, elevation: 241 m

Current weather observation

The report was made 26 minutes ago, at 13:00 UTC
Wind 8 kt from the East/Southeast, varying between East/Northeast and South/Southeast
Temperature 19°C
Humidity 32%
Pressure 1020 hPa
Visibility 10 km or more
no clouds below 1500 m and no cumulonimbus

METAR: LKTB 211300Z 11008KT 070V150 CAVOK 19/02 Q1020 NOSIG

Time: 15:26 (13:26 UTC)

Forecast

The report was made 2 hours and 26 minutes ago, at 11:00 UTC
Forecast valid from 21 at 12 UTC to 22 at 18 UTC
Wind 10 kt from the East
Visibility 10 km or more
no clouds below 1500 m and no cumulonimbus
Temporary
from 22 at 00 UTC to 22 at 06 UTC
Wind 4 kt from the North
Temporary
from 22 at 09 UTC to 22 at 18 UTC
Wind 14 kt from the East/Northeast with gusts up to 28 kt

TAF: LKTB 211100Z 2112/2218 08010KT CAVOK TEMPO 2200/2206 01004KT TEMPO 2209/2218 06014G28KT

Weather observations and forecasts of more than 4000 airports (METAR and TAF reports).

The available stations are represented by yellow and red dots on the map.

Hover mouse over dot to see the name of the station.

Then click to see weather observations and forecasts.

To change the map : click on the green buttons with a black cross to zoom in, on the green button with a dash to zoom out, or on the green arrows for adjacent maps.


METAR-TAF: